sensor_id;sensor_type;location;lat;lon;timestamp;temperature;humidity
25504;DHT22;13410;52.114;5.718;2023-09-12T00:01:50;26.40;99.90
25504;DHT22;13410;52.114;5.718;2023-09-12T00:04:15;26.00;99.90
25504;DHT22;13410;52.114;5.718;2023-09-12T00:06:42;25.70;99.90
25504;DHT22;13410;52.114;5.718;2023-09-12T00:09:07;26.00;99.90
25504;DHT22;13410;52.114;5.718;2023-09-12T00:11:34;25.80;99.90
25504;DHT22;13410;52.114;5.718;2023-09-12T00:13:59;26.30;99.90
25504;DHT22;13410;52.114;5.718;2023-09-12T00:16:25;26.50;99.90
25504;DHT22;13410;52.114;5.718;2023-09-12T00:18:50;26.60;99.90
25504;DHT22;13410;52.114;5.718;2023-09-12T00:21:16;26.80;99.90
25504;DHT22;13410;52.114;5.718;2023-09-12T00:23:42;27.10;99.90
25504;DHT22;13410;52.114;5.718;2023-09-12T00:26:08;27.10;99.90
25504;DHT22;13410;52.114;5.718;2023-09-12T00:28:33;26.70;99.90
25504;DHT22;13410;52.114;5.718;2023-09-12T00:30:59;26.20;99.90
25504;DHT22;13410;52.114;5.718;2023-09-12T00:33:25;26.90;99.90
25504;DHT22;13410;52.114;5.718;2023-09-12T00:35:50;27.00;99.90
25504;DHT22;13410;52.114;5.718;2023-09-12T00:38:16;27.00;99.90
25504;DHT22;13410;52.114;5.718;2023-09-12T00:40:41;27.00;99.90
25504;DHT22;13410;52.114;5.718;2023-09-12T00:43:07;26.90;99.90
25504;DHT22;13410;52.114;5.718;2023-09-12T00:45:33;27.00;99.90
25504;DHT22;13410;52.114;5.718;2023-09-12T00:48:01;26.90;99.90
25504;DHT22;13410;52.114;5.718;2023-09-12T00:50:28;26.40;99.90
25504;DHT22;13410;52.114;5.718;2023-09-12T00:52:54;26.60;99.90
25504;DHT22;13410;52.114;5.718;2023-09-12T00:55:21;27.30;99.90
25504;DHT22;13410;52.114;5.718;2023-09-12T00:57:47;27.60;99.90
25504;DHT22;13410;52.114;5.718;2023-09-12T01:00:13;27.40;99.90
25504;DHT22;13410;52.114;5.718;2023-09-12T01:02:40;27.50;99.90
25504;DHT22;13410;52.114;5.718;2023-09-12T01:05:07;27.40;99.90
25504;DHT22;13410;52.114;5.718;2023-09-12T01:07:34;27.60;99.90
25504;DHT22;13410;52.114;5.718;2023-09-12T01:10:00;27.60;99.90
25504;DHT22;13410;52.114;5.718;2023-09-12T01:12:26;27.50;99.90
25504;DHT22;13410;52.114;5.718;2023-09-12T01:14:52;27.30;99.90
25504;DHT22;13410;52.114;5.718;2023-09-12T01:17:18;26.90;99.90
25504;DHT22;13410;52.114;5.718;2023-09-12T01:19:44;27.00;99.90
25504;DHT22;13410;52.114;5.718;2023-09-12T01:25:08;26.80;99.90
25504;DHT22;13410;52.114;5.718;2023-09-12T01:27:39;26.90;99.90
25504;DHT22;13410;52.114;5.718;2023-09-12T01:30:08;26.70;99.90
25504;DHT22;13410;52.114;5.718;2023-09-12T01:32:35;26.80;99.90
25504;DHT22;13410;52.114;5.718;2023-09-12T01:35:01;26.80;99.90
25504;DHT22;13410;52.114;5.718;2023-09-12T01:37:30;26.70;99.90
25504;DHT22;13410;52.114;5.718;2023-09-12T01:39:56;26.80;99.90
25504;DHT22;13410;52.114;5.718;2023-09-12T01:42:22;27.00;99.90
25504;DHT22;13410;52.114;5.718;2023-09-12T01:44:50;27.00;99.90
25504;DHT22;13410;52.114;5.718;2023-09-12T01:47:20;27.00;99.90
25504;DHT22;13410;52.114;5.718;2023-09-12T01:49:50;27.00;99.90
25504;DHT22;13410;52.114;5.718;2023-09-12T01:52:16;26.50;99.90
25504;DHT22;13410;52.114;5.718;2023-09-12T01:54:44;26.30;99.90
25504;DHT22;13410;52.114;5.718;2023-09-12T01:57:10;26.60;99.90
25504;DHT22;13410;52.114;5.718;2023-09-12T01:59:36;26.60;99.90
25504;DHT22;13410;52.114;5.718;2023-09-12T02:02:02;26.80;99.90
25504;DHT22;13410;52.114;5.718;2023-09-12T02:04:27;26.80;99.90
25504;DHT22;13410;52.114;5.718;2023-09-12T02:06:53;27.20;99.90
25504;DHT22;13410;52.114;5.718;2023-09-12T02:09:18;27.10;99.90
25504;DHT22;13410;52.114;5.718;2023-09-12T02:11:44;26.80;99.90
25504;DHT22;13410;52.114;5.718;2023-09-12T02:14:09;26.90;99.90
25504;DHT22;13410;52.114;5.718;2023-09-12T02:16:36;27.20;99.90
25504;DHT22;13410;52.114;5.718;2023-09-12T02:19:05;26.80;99.90
25504;DHT22;13410;52.114;5.718;2023-09-12T02:21:31;26.80;99.90
25504;DHT22;13410;52.114;5.718;2023-09-12T02:23:57;26.60;99.90
25504;DHT22;13410;52.114;5.718;2023-09-12T02:26:23;26.50;99.90
25504;DHT22;13410;52.114;5.718;2023-09-12T02:28:48;26.40;99.90
25504;DHT22;13410;52.114;5.718;2023-09-12T02:31:14;26.20;99.90
25504;DHT22;13410;52.114;5.718;2023-09-12T02:33:40;26.00;99.90
25504;DHT22;13410;52.114;5.718;2023-09-12T02:36:06;26.20;99.90
25504;DHT22;13410;52.114;5.718;2023-09-12T02:38:32;26.20;99.90
25504;DHT22;13410;52.114;5.718;2023-09-12T02:40:58;26.40;99.90
25504;DHT22;13410;52.114;5.718;2023-09-12T02:43:23;26.60;99.90
25504;DHT22;13410;52.114;5.718;2023-09-12T02:45:49;26.50;99.90
25504;DHT22;13410;52.114;5.718;2023-09-12T02:48:14;26.40;99.90
25504;DHT22;13410;52.114;5.718;2023-09-12T02:50:40;26.30;99.90
25504;DHT22;13410;52.114;5.718;2023-09-12T02:53:05;26.00;99.90
25504;DHT22;13410;52.114;5.718;2023-09-12T02:55:32;25.70;99.90
25504;DHT22;13410;52.114;5.718;2023-09-12T02:57:57;25.30;99.90
25504;DHT22;13410;52.114;5.718;2023-09-12T03:00:23;25.70;99.90
25504;DHT22;13410;52.114;5.718;2023-09-12T03:02:48;25.90;99.90
25504;DHT22;13410;52.114;5.718;2023-09-12T03:05:14;26.00;99.90
25504;DHT22;13410;52.114;5.718;2023-09-12T03:07:39;26.00;99.90
25504;DHT22;13410;52.114;5.718;2023-09-12T03:10:05;26.00;99.90
25504;DHT22;13410;52.114;5.718;2023-09-12T03:12:31;25.70;99.90
25504;DHT22;13410;52.114;5.718;2023-09-12T03:14:57;25.70;99.90
25504;DHT22;13410;52.114;5.718;2023-09-12T03:17:22;26.10;99.90
25504;DHT22;13410;52.114;5.718;2023-09-12T03:19:48;26.00;99.90
25504;DHT22;13410;52.114;5.718;2023-09-12T03:22:13;26.00;99.90
25504;DHT22;13410;52.114;5.718;2023-09-12T03:24:39;25.80;99.90
25504;DHT22;13410;52.114;5.718;2023-09-12T03:27:04;25.70;99.90
25504;DHT22;13410;52.114;5.718;2023-09-12T03:29:30;25.40;99.90
25504;DHT22;13410;52.114;5.718;2023-09-12T03:31:55;25.00;99.90
25504;DHT22;13410;52.114;5.718;2023-09-12T03:34:21;24.80;99.90
25504;DHT22;13410;52.114;5.718;2023-09-12T03:36:46;24.80;99.90
25504;DHT22;13410;52.114;5.718;2023-09-12T03:39:12;24.90;99.90
25504;DHT22;13410;52.114;5.718;2023-09-12T03:41:39;25.10;99.90
25504;DHT22;13410;52.114;5.718;2023-09-12T03:44:05;25.20;99.90
25504;DHT22;13410;52.114;5.718;2023-09-12T03:46:30;24.80;99.90
25504;DHT22;13410;52.114;5.718;2023-09-12T03:48:56;24.80;99.90
25504;DHT22;13410;52.114;5.718;2023-09-12T03:51:21;24.70;99.90
25504;DHT22;13410;52.114;5.718;2023-09-12T03:53:47;24.60;99.90
25504;DHT22;13410;52.114;5.718;2023-09-12T03:56:15;24.60;99.90
25504;DHT22;13410;52.114;5.718;2023-09-12T03:58:42;24.50;99.90
25504;DHT22;13410;52.114;5.718;2023-09-12T04:01:07;24.40;99.90
25504;DHT22;13410;52.114;5.718;2023-09-12T04:03:33;24.60;99.90
25504;DHT22;13410;52.114;5.718;2023-09-12T04:06:00;24.30;99.90
25504;DHT22;13410;52.114;5.718;2023-09-12T04:08:25;24.40;99.90
25504;DHT22;13410;52.114;5.718;2023-09-12T04:10:51;24.20;99.90
25504;DHT22;13410;52.114;5.718;2023-09-12T04:13:16;24.50;99.90
25504;DHT22;13410;52.114;5.718;2023-09-12T04:15:42;24.40;99.90
25504;DHT22;13410;52.114;5.718;2023-09-12T04:18:07;24.40;99.90
25504;DHT22;13410;52.114;5.718;2023-09-12T04:20:33;24.30;99.90
25504;DHT22;13410;52.114;5.718;2023-09-12T04:23:02;24.20;99.90
25504;DHT22;13410;52.114;5.718;2023-09-12T04:25:30;24.40;99.90
25504;DHT22;13410;52.114;5.718;2023-09-12T04:27:56;24.50;99.90
25504;DHT22;13410;52.114;5.718;2023-09-12T04:30:21;24.30;99.90
25504;DHT22;13410;52.114;5.718;2023-09-12T04:32:47;24.00;99.90
25504;DHT22;13410;52.114;5.718;2023-09-12T04:35:21;24.00;99.90
25504;DHT22;13410;52.114;5.718;2023-09-12T04:37:50;24.10;99.90
25504;DHT22;13410;52.114;5.718;2023-09-12T04:40:16;24.50;99.90
25504;DHT22;13410;52.114;5.718;2023-09-12T04:42:41;24.70;99.90
25504;DHT22;13410;52.114;5.718;2023-09-12T04:45:07;24.90;99.90
25504;DHT22;13410;52.114;5.718;2023-09-12T04:47:33;24.90;99.90
25504;DHT22;13410;52.114;5.718;2023-09-12T04:49:58;24.70;99.90
25504;DHT22;13410;52.114;5.718;2023-09-12T04:52:25;24.40;99.90
25504;DHT22;13410;52.114;5.718;2023-09-12T04:54:50;24.30;99.90
25504;DHT22;13410;52.114;5.718;2023-09-12T04:57:16;24.90;99.90
25504;DHT22;13410;52.114;5.718;2023-09-12T04:59:42;24.70;99.90
25504;DHT22;13410;52.114;5.718;2023-09-12T05:02:07;25.10;99.90
25504;DHT22;13410;52.114;5.718;2023-09-12T05:04:33;25.10;99.90
25504;DHT22;13410;52.114;5.718;2023-09-12T05:06:59;25.60;99.90
25504;DHT22;13410;52.114;5.718;2023-09-12T05:09:24;25.60;99.90
25504;DHT22;13410;52.114;5.718;2023-09-12T05:11:50;25.80;99.90
25504;DHT22;13410;52.114;5.718;2023-09-12T05:14:15;25.60;99.90
25504;DHT22;13410;52.114;5.718;2023-09-12T05:16:41;25.80;99.90
25504;DHT22;13410;52.114;5.718;2023-09-12T05:19:06;25.80;99.90
25504;DHT22;13410;52.114;5.718;2023-09-12T05:21:32;25.80;99.90
25504;DHT22;13410;52.114;5.718;2023-09-12T05:23:58;25.60;99.90
25504;DHT22;13410;52.114;5.718;2023-09-12T05:26:23;25.60;99.90
25504;DHT22;13410;52.114;5.718;2023-09-12T05:28:49;25.50;99.90
25504;DHT22;13410;52.114;5.718;2023-09-12T05:31:15;25.50;99.90
25504;DHT22;13410;52.114;5.718;2023-09-12T05:33:40;25.80;99.90
25504;DHT22;13410;52.114;5.718;2023-09-12T05:36:06;25.90;99.90
25504;DHT22;13410;52.114;5.718;2023-09-12T05:38:31;26.00;99.90
25504;DHT22;13410;52.114;5.718;2023-09-12T05:40:57;25.70;99.90
25504;DHT22;13410;52.114;5.718;2023-09-12T05:43:22;25.40;99.90
25504;DHT22;13410;52.114;5.718;2023-09-12T05:45:48;24.90;99.90
25504;DHT22;13410;52.114;5.718;2023-09-12T05:48:14;25.50;99.90
25504;DHT22;13410;52.114;5.718;2023-09-12T05:50:40;25.50;99.90
25504;DHT22;13410;52.114;5.718;2023-09-12T05:53:05;25.80;99.90
25504;DHT22;13410;52.114;5.718;2023-09-12T05:55:31;25.60;99.90
25504;DHT22;13410;52.114;5.718;2023-09-12T05:57:56;25.60;99.90
25504;DHT22;13410;52.114;5.718;2023-09-12T06:00:22;25.60;99.90
25504;DHT22;13410;52.114;5.718;2023-09-12T06:02:48;25.60;99.90
25504;DHT22;13410;52.114;5.718;2023-09-12T06:05:14;25.50;99.90
25504;DHT22;13410;52.114;5.718;2023-09-12T06:07:40;25.30;99.90
25504;DHT22;13410;52.114;5.718;2023-09-12T06:10:07;25.40;99.90
25504;DHT22;13410;52.114;5.718;2023-09-12T06:12:32;25.50;99.90
25504;DHT22;13410;52.114;5.718;2023-09-12T06:14:59;25.40;99.90
25504;DHT22;13410;52.114;5.718;2023-09-12T06:17:25;25.60;99.90
25504;DHT22;13410;52.114;5.718;2023-09-12T06:19:50;25.40;99.90
25504;DHT22;13410;52.114;5.718;2023-09-12T06:22:17;25.30;99.90
25504;DHT22;13410;52.114;5.718;2023-09-12T06:24:43;25.40;99.90
25504;DHT22;13410;52.114;5.718;2023-09-12T06:27:08;25.50;99.90
25504;DHT22;13410;52.114;5.718;2023-09-12T06:29:34;25.50;99.90
25504;DHT22;13410;52.114;5.718;2023-09-12T06:31:59;25.60;99.90
25504;DHT22;13410;52.114;5.718;2023-09-12T06:34:25;25.60;99.90
25504;DHT22;13410;52.114;5.718;2023-09-12T06:36:52;25.80;99.90
25504;DHT22;13410;52.114;5.718;2023-09-12T06:39:17;26.20;99.90
25504;DHT22;13410;52.114;5.718;2023-09-12T06:41:43;25.90;99.90
25504;DHT22;13410;52.114;5.718;2023-09-12T06:44:09;26.10;99.90
25504;DHT22;13410;52.114;5.718;2023-09-12T06:46:34;26.00;99.90
25504;DHT22;13410;52.114;5.718;2023-09-12T06:49:03;26.20;99.90
25504;DHT22;13410;52.114;5.718;2023-09-12T06:51:29;26.10;99.90
25504;DHT22;13410;52.114;5.718;2023-09-12T06:53:55;26.20;99.90
25504;DHT22;13410;52.114;5.718;2023-09-12T06:56:21;26.50;99.90
25504;DHT22;13410;52.114;5.718;2023-09-12T06:58:47;26.50;99.90
25504;DHT22;13410;52.114;5.718;2023-09-12T07:01:13;26.60;99.90
25504;DHT22;13410;52.114;5.718;2023-09-12T07:03:39;26.70;99.90
25504;DHT22;13410;52.114;5.718;2023-09-12T07:06:04;26.80;99.90
25504;DHT22;13410;52.114;5.718;2023-09-12T07:08:31;26.80;99.90
25504;DHT22;13410;52.114;5.718;2023-09-12T07:10:56;26.80;99.90
25504;DHT22;13410;52.114;5.718;2023-09-12T07:13:23;26.80;99.90
25504;DHT22;13410;52.114;5.718;2023-09-12T07:15:50;26.90;99.90
25504;DHT22;13410;52.114;5.718;2023-09-12T07:18:15;26.90;99.90
25504;DHT22;13410;52.114;5.718;2023-09-12T07:20:41;26.80;99.90
25504;DHT22;13410;52.114;5.718;2023-09-12T07:23:07;26.80;99.90
25504;DHT22;13410;52.114;5.718;2023-09-12T07:25:39;26.90;99.90
25504;DHT22;13410;52.114;5.718;2023-09-12T07:28:06;26.80;99.90
25504;DHT22;13410;52.114;5.718;2023-09-12T07:30:31;27.00;99.90
25504;DHT22;13410;52.114;5.718;2023-09-12T07:32:57;27.10;99.90
25504;DHT22;13410;52.114;5.718;2023-09-12T07:35:24;27.20;99.90
25504;DHT22;13410;52.114;5.718;2023-09-12T07:37:51;27.40;99.90
25504;DHT22;13410;52.114;5.718;2023-09-12T07:40:17;27.30;99.90
25504;DHT22;13410;52.114;5.718;2023-09-12T07:42:43;27.40;99.90
25504;DHT22;13410;52.114;5.718;2023-09-12T07:45:09;27.50;99.90
25504;DHT22;13410;52.114;5.718;2023-09-12T07:47:34;27.60;99.90
25504;DHT22;13410;52.114;5.718;2023-09-12T07:50:00;27.60;99.90
25504;DHT22;13410;52.114;5.718;2023-09-12T07:52:29;27.60;99.90
25504;DHT22;13410;52.114;5.718;2023-09-12T07:55:02;27.40;99.90
25504;DHT22;13410;52.114;5.718;2023-09-12T07:57:29;27.70;99.90
25504;DHT22;13410;52.114;5.718;2023-09-12T07:59:58;27.70;99.90
25504;DHT22;13410;52.114;5.718;2023-09-12T08:02:24;27.90;99.90
25504;DHT22;13410;52.114;5.718;2023-09-12T08:04:50;27.90;99.90
25504;DHT22;13410;52.114;5.718;2023-09-12T08:07:23;27.40;99.90
25504;DHT22;13410;52.114;5.718;2023-09-12T08:09:56;27.70;99.90
25504;DHT22;13410;52.114;5.718;2023-09-12T08:12:26;27.90;99.90
25504;DHT22;13410;52.114;5.718;2023-09-12T08:14:53;28.30;99.90
25504;DHT22;13410;52.114;5.718;2023-09-12T08:17:19;28.40;99.90
25504;DHT22;13410;52.114;5.718;2023-09-12T08:19:45;28.70;99.90
25504;DHT22;13410;52.114;5.718;2023-09-12T08:22:11;29.00;99.90
25504;DHT22;13410;52.114;5.718;2023-09-12T08:24:37;28.80;99.90
25504;DHT22;13410;52.114;5.718;2023-09-12T08:27:04;28.80;99.90
25504;DHT22;13410;52.114;5.718;2023-09-12T08:29:31;29.00;99.90
25504;DHT22;13410;52.114;5.718;2023-09-12T08:31:57;29.00;99.90
25504;DHT22;13410;52.114;5.718;2023-09-12T08:34:23;29.20;99.90
25504;DHT22;13410;52.114;5.718;2023-09-12T08:36:48;29.20;99.90
25504;DHT22;13410;52.114;5.718;2023-09-12T08:39:16;29.30;99.90
25504;DHT22;13410;52.114;5.718;2023-09-12T08:41:44;29.00;99.90
25504;DHT22;13410;52.114;5.718;2023-09-12T08:44:12;29.00;99.90
25504;DHT22;13410;52.114;5.718;2023-09-12T08:46:38;29.00;99.90
25504;DHT22;13410;52.114;5.718;2023-09-12T08:49:06;29.20;99.90
25504;DHT22;13410;52.114;5.718;2023-09-12T08:51:32;29.20;99.90
25504;DHT22;13410;52.114;5.718;2023-09-12T08:53:58;29.00;99.90
25504;DHT22;13410;52.114;5.718;2023-09-12T08:56:25;28.90;99.90
25504;DHT22;13410;52.114;5.718;2023-09-12T08:58:51;28.60;99.90
25504;DHT22;13410;52.114;5.718;2023-09-12T09:01:18;28.60;99.90
25504;DHT22;13410;52.114;5.718;2023-09-12T09:03:44;28.60;99.90
25504;DHT22;13410;52.114;5.718;2023-09-12T09:06:11;28.90;99.90
25504;DHT22;13410;52.114;5.718;2023-09-12T09:08:38;28.80;99.90
25504;DHT22;13410;52.114;5.718;2023-09-12T09:11:04;29.00;99.90
25504;DHT22;13410;52.114;5.718;2023-09-12T09:13:32;29.00;99.90
25504;DHT22;13410;52.114;5.718;2023-09-12T09:16:17;28.70;99.90
25504;DHT22;13410;52.114;5.718;2023-09-12T09:21:26;29.00;99.90
25504;DHT22;13410;52.114;5.718;2023-09-12T09:23:55;29.20;99.90
25504;DHT22;13410;52.114;5.718;2023-09-12T09:26:21;29.30;99.90
25504;DHT22;13410;52.114;5.718;2023-09-12T09:29:06;29.60;99.90
25504;DHT22;13410;52.114;5.718;2023-09-12T09:31:32;29.40;99.90
25504;DHT22;13410;52.114;5.718;2023-09-12T09:33:59;29.30;99.90
25504;DHT22;13410;52.114;5.718;2023-09-12T09:36:25;29.40;99.90
25504;DHT22;13410;52.114;5.718;2023-09-12T09:38:51;29.60;99.90
25504;DHT22;13410;52.114;5.718;2023-09-12T09:41:20;29.50;99.90
25504;DHT22;13410;52.114;5.718;2023-09-12T09:43:50;29.60;99.90
25504;DHT22;13410;52.114;5.718;2023-09-12T09:46:16;29.70;99.90
25504;DHT22;13410;52.114;5.718;2023-09-12T09:48:49;29.80;99.90
25504;DHT22;13410;52.114;5.718;2023-09-12T09:51:14;30.40;99.90
25504;DHT22;13410;52.114;5.718;2023-09-12T09:53:40;30.70;99.90
25504;DHT22;13410;52.114;5.718;2023-09-12T09:56:13;30.50;99.90
25504;DHT22;13410;52.114;5.718;2023-09-12T09:58:48;30.20;99.90
25504;DHT22;13410;52.114;5.718;2023-09-12T10:01:20;30.30;99.90
25504;DHT22;13410;52.114;5.718;2023-09-12T10:03:50;30.60;99.90
25504;DHT22;13410;52.114;5.718;2023-09-12T10:06:17;30.70;99.90
25504;DHT22;13410;52.114;5.718;2023-09-12T10:08:45;30.60;99.90
25504;DHT22;13410;52.114;5.718;2023-09-12T10:11:15;30.90;99.90
25504;DHT22;13410;52.114;5.718;2023-09-12T10:13:46;30.90;99.90
25504;DHT22;13410;52.114;5.718;2023-09-12T10:16:15;30.80;99.90
25504;DHT22;13410;52.114;5.718;2023-09-12T10:18:46;30.80;99.90
25504;DHT22;13410;52.114;5.718;2023-09-12T10:21:18;30.90;99.90
25504;DHT22;13410;52.114;5.718;2023-09-12T10:23:45;30.90;99.90
25504;DHT22;13410;52.114;5.718;2023-09-12T10:26:13;30.70;99.90
25504;DHT22;13410;52.114;5.718;2023-09-12T10:28:42;30.80;99.90
25504;DHT22;13410;52.114;5.718;2023-09-12T10:31:10;30.60;99.90
25504;DHT22;13410;52.114;5.718;2023-09-12T10:33:37;30.80;99.90
25504;DHT22;13410;52.114;5.718;2023-09-12T10:36:03;30.90;99.90
25504;DHT22;13410;52.114;5.718;2023-09-12T10:38:32;30.90;99.90
25504;DHT22;13410;52.114;5.718;2023-09-12T10:41:00;31.10;99.90
25504;DHT22;13410;52.114;5.718;2023-09-12T10:43:26;31.00;99.90
25504;DHT22;13410;52.114;5.718;2023-09-12T10:45:53;30.80;99.90
25504;DHT22;13410;52.114;5.718;2023-09-12T10:48:20;31.20;99.90
25504;DHT22;13410;52.114;5.718;2023-09-12T10:50:47;31.30;99.90
25504;DHT22;13410;52.114;5.718;2023-09-12T10:53:15;31.50;99.90
25504;DHT22;13410;52.114;5.718;2023-09-12T10:55:41;31.80;99.90
25504;DHT22;13410;52.114;5.718;2023-09-12T10:58:10;32.00;99.90
25504;DHT22;13410;52.114;5.718;2023-09-12T11:00:37;31.90;99.90
25504;DHT22;13410;52.114;5.718;2023-09-12T11:05:55;31.70;99.90
25504;DHT22;13410;52.114;5.718;2023-09-12T11:08:21;31.60;99.90
25504;DHT22;13410;52.114;5.718;2023-09-12T11:11:16;31.70;99.90
25504;DHT22;13410;52.114;5.718;2023-09-12T11:13:43;32.10;99.90
25504;DHT22;13410;52.114;5.718;2023-09-12T11:16:16;31.80;99.90
25504;DHT22;13410;52.114;5.718;2023-09-12T11:21:44;31.00;99.90
25504;DHT22;13410;52.114;5.718;2023-09-12T11:24:10;30.40;99.90
25504;DHT22;13410;52.114;5.718;2023-09-12T11:26:58;30.40;99.90
25504;DHT22;13410;52.114;5.718;2023-09-12T11:29:38;30.00;99.90
25504;DHT22;13410;52.114;5.718;2023-09-12T11:32:05;29.50;99.90
25504;DHT22;13410;52.114;5.718;2023-09-12T11:34:37;29.40;99.90
25504;DHT22;13410;52.114;5.718;2023-09-12T11:37:03;29.60;99.90
25504;DHT22;13410;52.114;5.718;2023-09-12T11:39:35;29.70;99.90
25504;DHT22;13410;52.114;5.718;2023-09-12T11:42:01;29.90;99.90
25504;DHT22;13410;52.114;5.718;2023-09-12T11:44:28;30.40;99.90
25504;DHT22;13410;52.114;5.718;2023-09-12T11:46:56;30.70;99.90
25504;DHT22;13410;52.114;5.718;2023-09-12T11:49:35;30.60;99.90
25504;DHT22;13410;52.114;5.718;2023-09-12T11:52:00;31.10;99.90
25504;DHT22;13410;52.114;5.718;2023-09-12T11:54:26;31.10;99.90
25504;DHT22;13410;52.114;5.718;2023-09-12T11:56:52;31.20;99.90
25504;DHT22;13410;52.114;5.718;2023-09-12T11:59:31;31.60;99.90
25504;DHT22;13410;52.114;5.718;2023-09-12T12:01:57;31.90;99.90
25504;DHT22;13410;52.114;5.718;2023-09-12T12:04:24;32.20;99.90
25504;DHT22;13410;52.114;5.718;2023-09-12T12:06:54;32.40;99.90
25504;DHT22;13410;52.114;5.718;2023-09-12T12:09:19;32.10;99.90
25504;DHT22;13410;52.114;5.718;2023-09-12T12:11:46;32.50;99.90
25504;DHT22;13410;52.114;5.718;2023-09-12T12:14:16;32.40;99.90
25504;DHT22;13410;52.114;5.718;2023-09-12T12:16:43;31.90;99.90
25504;DHT22;13410;52.114;5.718;2023-09-12T12:19:13;32.10;99.90
25504;DHT22;13410;52.114;5.718;2023-09-12T12:21:42;31.90;99.90
25504;DHT22;13410;52.114;5.718;2023-09-12T12:24:13;32.10;99.90
25504;DHT22;13410;52.114;5.718;2023-09-12T12:26:42;31.90;99.90
25504;DHT22;13410;52.114;5.718;2023-09-12T12:29:09;32.10;99.90
25504;DHT22;13410;52.114;5.718;2023-09-12T12:31:36;31.70;99.90
25504;DHT22;13410;52.114;5.718;2023-09-12T12:34:02;31.70;99.90
25504;DHT22;13410;52.114;5.718;2023-09-12T12:36:29;31.90;99.90
25504;DHT22;13410;52.114;5.718;2023-09-12T12:38:54;32.00;99.90
25504;DHT22;13410;52.114;5.718;2023-09-12T12:43:50;31.80;99.90
25504;DHT22;13410;52.114;5.718;2023-09-12T12:46:20;31.60;99.90
25504;DHT22;13410;52.114;5.718;2023-09-12T12:48:47;31.60;99.90
25504;DHT22;13410;52.114;5.718;2023-09-12T12:51:24;32.00;99.90
25504;DHT22;13410;52.114;5.718;2023-09-12T12:54:02;32.40;99.90
25504;DHT22;13410;52.114;5.718;2023-09-12T12:56:29;32.50;99.90
25504;DHT22;13410;52.114;5.718;2023-09-12T12:58:56;32.50;99.90
25504;DHT22;13410;52.114;5.718;2023-09-12T13:01:23;32.50;99.90
25504;DHT22;13410;52.114;5.718;2023-09-12T13:03:49;32.40;99.90
25504;DHT22;13410;52.114;5.718;2023-09-12T13:06:17;32.30;99.90
25504;DHT22;13410;52.114;5.718;2023-09-12T13:08:45;32.50;99.90
25504;DHT22;13410;52.114;5.718;2023-09-12T13:11:12;32.20;99.90
25504;DHT22;13410;52.114;5.718;2023-09-12T13:13:38;32.30;99.90
25504;DHT22;13410;52.114;5.718;2023-09-12T13:16:05;32.30;99.90
25504;DHT22;13410;52.114;5.718;2023-09-12T13:18:33;32.40;99.90
25504;DHT22;13410;52.114;5.718;2023-09-12T13:20:59;32.30;99.90
25504;DHT22;13410;52.114;5.718;2023-09-12T13:23:25;32.20;99.90
25504;DHT22;13410;52.114;5.718;2023-09-12T13:25:51;32.10;99.90
25504;DHT22;13410;52.114;5.718;2023-09-12T13:28:17;32.30;99.90
25504;DHT22;13410;52.114;5.718;2023-09-12T13:30:43;32.20;99.90
25504;DHT22;13410;52.114;5.718;2023-09-12T13:33:10;32.30;99.90
25504;DHT22;13410;52.114;5.718;2023-09-12T13:35:36;32.40;99.90
25504;DHT22;13410;52.114;5.718;2023-09-12T13:38:02;32.30;99.90
25504;DHT22;13410;52.114;5.718;2023-09-12T13:40:29;32.60;99.90
25504;DHT22;13410;52.114;5.718;2023-09-12T13:42:54;32.50;99.90
25504;DHT22;13410;52.114;5.718;2023-09-12T13:45:20;32.50;99.90
25504;DHT22;13410;52.114;5.718;2023-09-12T13:47:45;32.50;99.90
25504;DHT22;13410;52.114;5.718;2023-09-12T13:50:11;32.50;99.90
25504;DHT22;13410;52.114;5.718;2023-09-12T13:52:36;31.90;99.90
25504;DHT22;13410;52.114;5.718;2023-09-12T13:55:02;31.30;99.90
25504;DHT22;13410;52.114;5.718;2023-09-12T13:57:29;31.50;99.90
25504;DHT22;13410;52.114;5.718;2023-09-12T13:59:54;31.60;99.90
25504;DHT22;13410;52.114;5.718;2023-09-12T14:02:20;31.10;99.90
25504;DHT22;13410;52.114;5.718;2023-09-12T14:04:45;31.20;99.90
25504;DHT22;13410;52.114;5.718;2023-09-12T14:07:11;31.10;99.90
25504;DHT22;13410;52.114;5.718;2023-09-12T14:09:37;30.80;99.90
25504;DHT22;13410;52.114;5.718;2023-09-12T14:12:02;30.60;99.90
25504;DHT22;13410;52.114;5.718;2023-09-12T14:14:28;30.30;99.90
25504;DHT22;13410;52.114;5.718;2023-09-12T14:16:55;29.90;99.90
25504;DHT22;13410;52.114;5.718;2023-09-12T14:19:20;29.90;99.90
25504;DHT22;13410;52.114;5.718;2023-09-12T14:21:46;30.30;99.90
25504;DHT22;13410;52.114;5.718;2023-09-12T14:24:11;30.60;99.90
25504;DHT22;13410;52.114;5.718;2023-09-12T14:26:38;30.80;99.90
25504;DHT22;13410;52.114;5.718;2023-09-12T14:29:04;30.80;99.90
25504;DHT22;13410;52.114;5.718;2023-09-12T14:31:29;30.80;99.90
25504;DHT22;13410;52.114;5.718;2023-09-12T14:33:55;31.10;99.90
25504;DHT22;13410;52.114;5.718;2023-09-12T14:36:20;31.10;99.90
25504;DHT22;13410;52.114;5.718;2023-09-12T14:38:46;31.50;99.90
25504;DHT22;13410;52.114;5.718;2023-09-12T14:41:13;31.00;99.90
25504;DHT22;13410;52.114;5.718;2023-09-12T14:43:39;30.90;99.90
25504;DHT22;13410;52.114;5.718;2023-09-12T14:46:05;30.20;99.90
25504;DHT22;13410;52.114;5.718;2023-09-12T14:48:33;29.30;99.90
25504;DHT22;13410;52.114;5.718;2023-09-12T14:51:01;28.40;99.90
25504;DHT22;13410;52.114;5.718;2023-09-12T14:53:27;28.30;99.90
25504;DHT22;13410;52.114;5.718;2023-09-12T14:55:53;27.90;99.90
25504;DHT22;13410;52.114;5.718;2023-09-12T14:58:19;27.90;99.90
25504;DHT22;13410;52.114;5.718;2023-09-12T15:00:44;28.00;99.90
25504;DHT22;13410;52.114;5.718;2023-09-12T15:03:10;28.20;99.90
25504;DHT22;13410;52.114;5.718;2023-09-12T15:05:35;28.20;99.90
25504;DHT22;13410;52.114;5.718;2023-09-12T15:08:01;28.70;99.90
25504;DHT22;13410;52.114;5.718;2023-09-12T15:10:27;28.50;99.90
25504;DHT22;13410;52.114;5.718;2023-09-12T15:12:52;27.90;99.90
25504;DHT22;13410;52.114;5.718;2023-09-12T15:15:19;28.00;99.90
25504;DHT22;13410;52.114;5.718;2023-09-12T15:17:44;28.00;99.90
25504;DHT22;13410;52.114;5.718;2023-09-12T15:20:11;27.80;99.90
25504;DHT22;13410;52.114;5.718;2023-09-12T15:22:36;27.70;99.90
25504;DHT22;13410;52.114;5.718;2023-09-12T15:25:02;27.50;99.90
25504;DHT22;13410;52.114;5.718;2023-09-12T15:27:28;27.10;99.90
25504;DHT22;13410;52.114;5.718;2023-09-12T15:29:54;27.10;99.90
25504;DHT22;13410;52.114;5.718;2023-09-12T15:32:20;27.20;99.90
25504;DHT22;13410;52.114;5.718;2023-09-12T15:34:46;27.70;99.90
25504;DHT22;13410;52.114;5.718;2023-09-12T15:37:13;27.90;99.90
25504;DHT22;13410;52.114;5.718;2023-09-12T15:39:39;28.00;99.90
25504;DHT22;13410;52.114;5.718;2023-09-12T15:42:07;28.20;99.90